sensor_id;sensor_type;location;lat;lon;timestamp;P1;durP1;ratioP1;P2;durP2;ratioP2
40807;SDS011;26523;52.504;13.498;2023-10-09T00:01:07;4.60;;;1.40;;
40807;SDS011;26523;52.504;13.498;2023-10-09T00:03:46;5.40;;;1.48;;
40807;SDS011;26523;52.504;13.498;2023-10-09T00:06:21;5.18;;;2.47;;
40807;SDS011;26523;52.504;13.498;2023-10-09T00:09:08;7.13;;;1.42;;
40807;SDS011;26523;52.504;13.498;2023-10-09T00:11:50;3.78;;;1.58;;
40807;SDS011;26523;52.504;13.498;2023-10-09T00:14:28;1.92;;;0.98;;
40807;SDS011;26523;52.504;13.498;2023-10-09T00:16:58;3.22;;;1.40;;
40807;SDS011;26523;52.504;13.498;2023-10-09T00:19:45;3.25;;;1.20;;
40807;SDS011;26523;52.504;13.498;2023-10-09T00:22:16;4.72;;;1.92;;
40807;SDS011;26523;52.504;13.498;2023-10-09T00:24:49;3.22;;;1.20;;
40807;SDS011;26523;52.504;13.498;2023-10-09T00:27:25;2.53;;;1.42;;
40807;SDS011;26523;52.504;13.498;2023-10-09T00:29:56;2.50;;;1.00;;
40807;SDS011;26523;52.504;13.498;2023-10-09T00:32:22;2.90;;;1.30;;
40807;SDS011;26523;52.504;13.498;2023-10-09T00:34:48;4.20;;;1.27;;
40807;SDS011;26523;52.504;13.498;2023-10-09T00:37:16;3.78;;;1.40;;
40807;SDS011;26523;52.504;13.498;2023-10-09T00:39:42;5.95;;;1.65;;
40807;SDS011;26523;52.504;13.498;2023-10-09T00:42:12;5.63;;;1.63;;
40807;SDS011;26523;52.504;13.498;2023-10-09T00:44:39;3.88;;;1.40;;
40807;SDS011;26523;52.504;13.498;2023-10-09T00:47:07;3.25;;;1.35;;
40807;SDS011;26523;52.504;13.498;2023-10-09T00:52:29;4.95;;;1.65;;
40807;SDS011;26523;52.504;13.498;2023-10-09T00:55:08;4.82;;;1.80;;
40807;SDS011;26523;52.504;13.498;2023-10-09T00:57:43;2.65;;;1.42;;
40807;SDS011;26523;52.504;13.498;2023-10-09T01:00:24;2.70;;;1.45;;
40807;SDS011;26523;52.504;13.498;2023-10-09T01:03:01;2.88;;;1.17;;
40807;SDS011;26523;52.504;13.498;2023-10-09T01:05:56;6.95;;;1.38;;
40807;SDS011;26523;52.504;13.498;2023-10-09T01:08:37;3.28;;;1.48;;
40807;SDS011;26523;52.504;13.498;2023-10-09T01:13:54;3.72;;;1.42;;
40807;SDS011;26523;52.504;13.498;2023-10-09T01:16:28;2.97;;;1.25;;
40807;SDS011;26523;52.504;13.498;2023-10-09T01:18:57;5.20;;;1.70;;
40807;SDS011;26523;52.504;13.498;2023-10-09T01:21:23;4.65;;;1.70;;
40807;SDS011;26523;52.504;13.498;2023-10-09T01:23:50;4.18;;;1.70;;
40807;SDS011;26523;52.504;13.498;2023-10-09T01:26:33;4.65;;;1.80;;
40807;SDS011;26523;52.504;13.498;2023-10-09T01:29:10;5.18;;;1.48;;
40807;SDS011;26523;52.504;13.498;2023-10-09T01:31:40;4.05;;;1.35;;
40807;SDS011;26523;52.504;13.498;2023-10-09T01:34:35;3.85;;;1.85;;
40807;SDS011;26523;52.504;13.498;2023-10-09T01:37:10;5.47;;;1.80;;
40807;SDS011;26523;52.504;13.498;2023-10-09T01:39:43;3.17;;;1.52;;
40807;SDS011;26523;52.504;13.498;2023-10-09T01:42:13;4.70;;;1.40;;
40807;SDS011;26523;52.504;13.498;2023-10-09T01:44:49;4.95;;;1.58;;
40807;SDS011;26523;52.504;13.498;2023-10-09T01:47:16;3.65;;;1.95;;
40807;SDS011;26523;52.504;13.498;2023-10-09T01:49:44;1.80;;;1.30;;
40807;SDS011;26523;52.504;13.498;2023-10-09T01:52:14;5.47;;;1.60;;
40807;SDS011;26523;52.504;13.498;2023-10-09T01:54:46;3.63;;;1.48;;
40807;SDS011;26523;52.504;13.498;2023-10-09T01:57:16;2.60;;;1.42;;
40807;SDS011;26523;52.504;13.498;2023-10-09T01:59:52;2.97;;;1.33;;
40807;SDS011;26523;52.504;13.498;2023-10-09T02:02:18;4.55;;;1.70;;
40807;SDS011;26523;52.504;13.498;2023-10-09T02:05:01;6.47;;;1.60;;
40807;SDS011;26523;52.504;13.498;2023-10-09T02:07:37;3.40;;;1.48;;
40807;SDS011;26523;52.504;13.498;2023-10-09T02:10:06;2.78;;;1.40;;
40807;SDS011;26523;52.504;13.498;2023-10-09T02:12:46;3.47;;;1.50;;
40807;SDS011;26523;52.504;13.498;2023-10-09T02:15:26;4.70;;;1.42;;
40807;SDS011;26523;52.504;13.498;2023-10-09T02:18:19;4.07;;;1.53;;
40807;SDS011;26523;52.504;13.498;2023-10-09T02:23:31;4.25;;;1.60;;
40807;SDS011;26523;52.504;13.498;2023-10-09T02:26:03;4.37;;;1.87;;
40807;SDS011;26523;52.504;13.498;2023-10-09T02:28:34;3.03;;;1.70;;
40807;SDS011;26523;52.504;13.498;2023-10-09T02:31:00;5.40;;;2.03;;
40807;SDS011;26523;52.504;13.498;2023-10-09T02:33:46;2.78;;;1.63;;
40807;SDS011;26523;52.504;13.498;2023-10-09T02:36:15;3.70;;;1.58;;
40807;SDS011;26523;52.504;13.498;2023-10-09T02:38:42;7.50;;;1.75;;
40807;SDS011;26523;52.504;13.498;2023-10-09T02:41:08;2.72;;;1.50;;
40807;SDS011;26523;52.504;13.498;2023-10-09T02:43:37;2.80;;;1.60;;
40807;SDS011;26523;52.504;13.498;2023-10-09T02:46:13;8.30;;;2.42;;
40807;SDS011;26523;52.504;13.498;2023-10-09T02:48:46;4.28;;;1.70;;
40807;SDS011;26523;52.504;13.498;2023-10-09T02:51:19;10.32;;;2.05;;
40807;SDS011;26523;52.504;13.498;2023-10-09T02:53:51;4.20;;;2.25;;
40807;SDS011;26523;52.504;13.498;2023-10-09T02:56:18;5.97;;;2.20;;
40807;SDS011;26523;52.504;13.498;2023-10-09T02:58:52;6.85;;;2.25;;
40807;SDS011;26523;52.504;13.498;2023-10-09T03:01:19;5.25;;;1.92;;
40807;SDS011;26523;52.504;13.498;2023-10-09T03:03:45;7.45;;;2.20;;
40807;SDS011;26523;52.504;13.498;2023-10-09T03:06:15;5.30;;;2.08;;
40807;SDS011;26523;52.504;13.498;2023-10-09T03:08:53;5.43;;;2.40;;
40807;SDS011;26523;52.504;13.498;2023-10-09T03:11:20;6.13;;;1.90;;
40807;SDS011;26523;52.504;13.498;2023-10-09T03:13:46;8.88;;;2.33;;
40807;SDS011;26523;52.504;13.498;2023-10-09T03:16:12;6.00;;;1.77;;
40807;SDS011;26523;52.504;13.498;2023-10-09T03:18:44;10.35;;;3.33;;
40807;SDS011;26523;52.504;13.498;2023-10-09T03:21:21;5.72;;;2.53;;
40807;SDS011;26523;52.504;13.498;2023-10-09T03:23:47;10.77;;;2.80;;
40807;SDS011;26523;52.504;13.498;2023-10-09T03:26:18;8.40;;;2.97;;
40807;SDS011;26523;52.504;13.498;2023-10-09T03:28:47;9.30;;;2.65;;
40807;SDS011;26523;52.504;13.498;2023-10-09T03:31:14;8.55;;;2.65;;
40807;SDS011;26523;52.504;13.498;2023-10-09T03:33:39;7.47;;;2.65;;
40807;SDS011;26523;52.504;13.498;2023-10-09T03:36:06;6.22;;;2.17;;
40807;SDS011;26523;52.504;13.498;2023-10-09T03:38:34;6.88;;;2.92;;
40807;SDS011;26523;52.504;13.498;2023-10-09T03:41:04;6.63;;;2.80;;
40807;SDS011;26523;52.504;13.498;2023-10-09T03:43:34;4.07;;;2.33;;
40807;SDS011;26523;52.504;13.498;2023-10-09T03:46:07;7.93;;;3.47;;
40807;SDS011;26523;52.504;13.498;2023-10-09T03:48:40;7.15;;;2.15;;
40807;SDS011;26523;52.504;13.498;2023-10-09T03:51:08;4.63;;;2.60;;
40807;SDS011;26523;52.504;13.498;2023-10-09T03:53:36;5.57;;;2.97;;
40807;SDS011;26523;52.504;13.498;2023-10-09T03:56:04;5.50;;;2.90;;
40807;SDS011;26523;52.504;13.498;2023-10-09T03:58:37;7.85;;;2.85;;
40807;SDS011;26523;52.504;13.498;2023-10-09T04:01:17;6.68;;;2.60;;
40807;SDS011;26523;52.504;13.498;2023-10-09T04:03:56;7.05;;;2.45;;
40807;SDS011;26523;52.504;13.498;2023-10-09T04:06:26;10.20;;;3.47;;
40807;SDS011;26523;52.504;13.498;2023-10-09T04:08:58;6.20;;;2.75;;
40807;SDS011;26523;52.504;13.498;2023-10-09T04:11:43;11.23;;;3.45;;
40807;SDS011;26523;52.504;13.498;2023-10-09T04:14:11;12.55;;;2.70;;
40807;SDS011;26523;52.504;13.498;2023-10-09T04:16:49;5.78;;;2.53;;
40807;SDS011;26523;52.504;13.498;2023-10-09T04:19:29;7.45;;;2.75;;
40807;SDS011;26523;52.504;13.498;2023-10-09T04:22:03;5.97;;;2.42;;
40807;SDS011;26523;52.504;13.498;2023-10-09T04:24:33;4.53;;;2.35;;
40807;SDS011;26523;52.504;13.498;2023-10-09T04:27:06;5.07;;;2.58;;
40807;SDS011;26523;52.504;13.498;2023-10-09T04:29:33;5.93;;;2.60;;
40807;SDS011;26523;52.504;13.498;2023-10-09T04:32:12;9.90;;;2.53;;
40807;SDS011;26523;52.504;13.498;2023-10-09T04:34:41;7.78;;;3.05;;
40807;SDS011;26523;52.504;13.498;2023-10-09T04:37:14;6.63;;;3.05;;
40807;SDS011;26523;52.504;13.498;2023-10-09T04:39:40;6.00;;;2.55;;
40807;SDS011;26523;52.504;13.498;2023-10-09T04:42:12;5.28;;;3.15;;
40807;SDS011;26523;52.504;13.498;2023-10-09T04:44:51;8.60;;;3.53;;
40807;SDS011;26523;52.504;13.498;2023-10-09T04:47:32;5.78;;;2.70;;
40807;SDS011;26523;52.504;13.498;2023-10-09T04:50:14;6.65;;;3.10;;
40807;SDS011;26523;52.504;13.498;2023-10-09T04:52:43;4.63;;;2.30;;
40807;SDS011;26523;52.504;13.498;2023-10-09T04:55:09;6.03;;;2.65;;
40807;SDS011;26523;52.504;13.498;2023-10-09T04:57:35;6.30;;;3.17;;
40807;SDS011;26523;52.504;13.498;2023-10-09T05:02:52;5.93;;;2.55;;
40807;SDS011;26523;52.504;13.498;2023-10-09T05:05:23;10.35;;;2.80;;
40807;SDS011;26523;52.504;13.498;2023-10-09T05:08:06;9.65;;;3.08;;
40807;SDS011;26523;52.504;13.498;2023-10-09T05:10:49;6.70;;;3.10;;
40807;SDS011;26523;52.504;13.498;2023-10-09T05:13:24;9.52;;;2.80;;
40807;SDS011;26523;52.504;13.498;2023-10-09T05:16:05;6.82;;;2.50;;
40807;SDS011;26523;52.504;13.498;2023-10-09T05:18:43;7.95;;;3.38;;
40807;SDS011;26523;52.504;13.498;2023-10-09T05:21:10;6.07;;;2.60;;
40807;SDS011;26523;52.504;13.498;2023-10-09T05:23:55;6.18;;;2.90;;
40807;SDS011;26523;52.504;13.498;2023-10-09T05:26:45;5.70;;;2.90;;
40807;SDS011;26523;52.504;13.498;2023-10-09T05:29:16;8.48;;;2.45;;
40807;SDS011;26523;52.504;13.498;2023-10-09T05:31:59;6.72;;;2.80;;
40807;SDS011;26523;52.504;13.498;2023-10-09T05:34:38;7.03;;;2.97;;
40807;SDS011;26523;52.504;13.498;2023-10-09T05:37:27;6.45;;;3.13;;
40807;SDS011;26523;52.504;13.498;2023-10-09T05:40:08;5.13;;;2.47;;
40807;SDS011;26523;52.504;13.498;2023-10-09T05:42:43;6.30;;;3.30;;
40807;SDS011;26523;52.504;13.498;2023-10-09T05:45:11;7.65;;;3.83;;
40807;SDS011;26523;52.504;13.498;2023-10-09T05:47:56;9.10;;;2.90;;
40807;SDS011;26523;52.504;13.498;2023-10-09T05:50:31;7.57;;;2.50;;
40807;SDS011;26523;52.504;13.498;2023-10-09T05:53:00;10.70;;;3.15;;
40807;SDS011;26523;52.504;13.498;2023-10-09T05:55:27;10.68;;;3.85;;
40807;SDS011;26523;52.504;13.498;2023-10-09T05:58:13;9.45;;;2.70;;
40807;SDS011;26523;52.504;13.498;2023-10-09T06:01:04;6.20;;;2.42;;
40807;SDS011;26523;52.504;13.498;2023-10-09T06:03:48;6.03;;;2.83;;
40807;SDS011;26523;52.504;13.498;2023-10-09T06:06:15;6.32;;;2.60;;
40807;SDS011;26523;52.504;13.498;2023-10-09T06:09:04;5.50;;;2.58;;
40807;SDS011;26523;52.504;13.498;2023-10-09T06:11:56;6.00;;;2.75;;
40807;SDS011;26523;52.504;13.498;2023-10-09T06:14:41;6.43;;;2.92;;
40807;SDS011;26523;52.504;13.498;2023-10-09T06:17:07;7.80;;;2.47;;
40807;SDS011;26523;52.504;13.498;2023-10-09T06:19:38;6.45;;;2.60;;
40807;SDS011;26523;52.504;13.498;2023-10-09T06:22:10;8.10;;;2.67;;
40807;SDS011;26523;52.504;13.498;2023-10-09T06:24:55;6.57;;;2.00;;
40807;SDS011;26523;52.504;13.498;2023-10-09T06:27:22;6.40;;;2.42;;
40807;SDS011;26523;52.504;13.498;2023-10-09T06:30:11;7.13;;;2.35;;
40807;SDS011;26523;52.504;13.498;2023-10-09T06:32:43;7.30;;;2.78;;
40807;SDS011;26523;52.504;13.498;2023-10-09T06:35:34;8.00;;;2.70;;
40807;SDS011;26523;52.504;13.498;2023-10-09T06:38:01;6.55;;;2.45;;
40807;SDS011;26523;52.504;13.498;2023-10-09T06:40:34;5.85;;;2.25;;
40807;SDS011;26523;52.504;13.498;2023-10-09T06:43:20;6.95;;;2.83;;
40807;SDS011;26523;52.504;13.498;2023-10-09T06:45:47;6.82;;;2.70;;
40807;SDS011;26523;52.504;13.498;2023-10-09T06:48:34;7.90;;;2.83;;
40807;SDS011;26523;52.504;13.498;2023-10-09T06:51:07;3.97;;;1.85;;
40807;SDS011;26523;52.504;13.498;2023-10-09T06:53:37;14.82;;;3.60;;
40807;SDS011;26523;52.504;13.498;2023-10-09T06:56:26;8.02;;;2.97;;
40807;SDS011;26523;52.504;13.498;2023-10-09T06:58:59;5.25;;;2.33;;
40807;SDS011;26523;52.504;13.498;2023-10-09T07:01:38;11.93;;;3.15;;
40807;SDS011;26523;52.504;13.498;2023-10-09T07:04:07;5.90;;;2.88;;
40807;SDS011;26523;52.504;13.498;2023-10-09T07:06:56;4.53;;;2.30;;
40807;SDS011;26523;52.504;13.498;2023-10-09T07:09:21;6.07;;;2.13;;
40807;SDS011;26523;52.504;13.498;2023-10-09T07:11:48;4.85;;;2.00;;
40807;SDS011;26523;52.504;13.498;2023-10-09T07:14:19;9.07;;;2.95;;
40807;SDS011;26523;52.504;13.498;2023-10-09T07:16:58;7.18;;;2.97;;
40807;SDS011;26523;52.504;13.498;2023-10-09T07:19:41;5.45;;;2.42;;
40807;SDS011;26523;52.504;13.498;2023-10-09T07:22:10;5.72;;;2.60;;
40807;SDS011;26523;52.504;13.498;2023-10-09T07:24:46;9.20;;;2.85;;
40807;SDS011;26523;52.504;13.498;2023-10-09T07:27:31;7.38;;;2.78;;
40807;SDS011;26523;52.504;13.498;2023-10-09T07:30:13;4.65;;;2.30;;
40807;SDS011;26523;52.504;13.498;2023-10-09T07:35:35;8.57;;;2.67;;
40807;SDS011;26523;52.504;13.498;2023-10-09T07:38:07;7.03;;;2.78;;
40807;SDS011;26523;52.504;13.498;2023-10-09T07:40:36;4.47;;;2.63;;
40807;SDS011;26523;52.504;13.498;2023-10-09T07:43:25;4.53;;;2.28;;
40807;SDS011;26523;52.504;13.498;2023-10-09T07:46:01;9.13;;;2.97;;
40807;SDS011;26523;52.504;13.498;2023-10-09T07:48:33;6.78;;;2.75;;
40807;SDS011;26523;52.504;13.498;2023-10-09T07:51:13;10.55;;;2.95;;
40807;SDS011;26523;52.504;13.498;2023-10-09T07:53:41;6.43;;;2.55;;
40807;SDS011;26523;52.504;13.498;2023-10-09T07:56:10;6.88;;;3.08;;
40807;SDS011;26523;52.504;13.498;2023-10-09T07:58:49;7.03;;;2.55;;
40807;SDS011;26523;52.504;13.498;2023-10-09T08:01:15;8.15;;;3.13;;
40807;SDS011;26523;52.504;13.498;2023-10-09T08:03:47;5.85;;;2.70;;
40807;SDS011;26523;52.504;13.498;2023-10-09T08:06:22;7.72;;;2.65;;
40807;SDS011;26523;52.504;13.498;2023-10-09T08:09:07;8.48;;;2.80;;
40807;SDS011;26523;52.504;13.498;2023-10-09T08:11:38;10.15;;;2.33;;
40807;SDS011;26523;52.504;13.498;2023-10-09T08:14:08;6.00;;;2.50;;
40807;SDS011;26523;52.504;13.498;2023-10-09T08:16:52;8.65;;;2.55;;
40807;SDS011;26523;52.504;13.498;2023-10-09T08:19:36;6.22;;;2.30;;
40807;SDS011;26523;52.504;13.498;2023-10-09T08:22:30;9.88;;;2.45;;
40807;SDS011;26523;52.504;13.498;2023-10-09T08:25:12;5.35;;;2.30;;
40807;SDS011;26523;52.504;13.498;2023-10-09T08:27:57;6.63;;;2.42;;
40807;SDS011;26523;52.504;13.498;2023-10-09T08:30:44;5.75;;;2.17;;
40807;SDS011;26523;52.504;13.498;2023-10-09T08:33:19;5.25;;;2.22;;
40807;SDS011;26523;52.504;13.498;2023-10-09T08:36:05;5.00;;;2.13;;
40807;SDS011;26523;52.504;13.498;2023-10-09T08:38:33;4.15;;;2.50;;
40807;SDS011;26523;52.504;13.498;2023-10-09T08:41:08;4.40;;;2.28;;
40807;SDS011;26523;52.504;13.498;2023-10-09T08:43:49;5.57;;;2.42;;
40807;SDS011;26523;52.504;13.498;2023-10-09T08:46:18;5.75;;;2.35;;
40807;SDS011;26523;52.504;13.498;2023-10-09T08:48:54;3.53;;;2.00;;
40807;SDS011;26523;52.504;13.498;2023-10-09T08:51:21;8.48;;;2.67;;
40807;SDS011;26523;52.504;13.498;2023-10-09T08:53:48;6.53;;;2.58;;
40807;SDS011;26523;52.504;13.498;2023-10-09T08:56:18;6.75;;;3.20;;
40807;SDS011;26523;52.504;13.498;2023-10-09T09:01:16;11.88;;;3.05;;
40807;SDS011;26523;52.504;13.498;2023-10-09T09:03:47;5.93;;;2.83;;
40807;SDS011;26523;52.504;13.498;2023-10-09T09:06:13;7.47;;;2.67;;
40807;SDS011;26523;52.504;13.498;2023-10-09T09:08:39;5.50;;;2.67;;
40807;SDS011;26523;52.504;13.498;2023-10-09T09:11:23;6.53;;;2.85;;
40807;SDS011;26523;52.504;13.498;2023-10-09T09:16:30;6.95;;;2.65;;
40807;SDS011;26523;52.504;13.498;2023-10-09T09:21:30;7.22;;;3.00;;
40807;SDS011;26523;52.504;13.498;2023-10-09T09:24:05;5.85;;;2.92;;
40807;SDS011;26523;52.504;13.498;2023-10-09T09:26:41;5.00;;;2.40;;
40807;SDS011;26523;52.504;13.498;2023-10-09T09:29:14;7.18;;;2.60;;
40807;SDS011;26523;52.504;13.498;2023-10-09T09:31:53;6.28;;;2.55;;
40807;SDS011;26523;52.504;13.498;2023-10-09T09:34:22;6.90;;;2.45;;
40807;SDS011;26523;52.504;13.498;2023-10-09T09:36:54;6.05;;;2.42;;
40807;SDS011;26523;52.504;13.498;2023-10-09T09:39:21;4.45;;;2.05;;
40807;SDS011;26523;52.504;13.498;2023-10-09T09:41:58;7.33;;;2.70;;
40807;SDS011;26523;52.504;13.498;2023-10-09T09:44:42;5.05;;;2.10;;
40807;SDS011;26523;52.504;13.498;2023-10-09T09:47:13;6.95;;;2.70;;
40807;SDS011;26523;52.504;13.498;2023-10-09T09:49:48;5.45;;;2.72;;
40807;SDS011;26523;52.504;13.498;2023-10-09T09:52:17;4.18;;;1.98;;
40807;SDS011;26523;52.504;13.498;2023-10-09T09:54:44;4.60;;;2.28;;
40807;SDS011;26523;52.504;13.498;2023-10-09T09:57:09;5.55;;;2.20;;
40807;SDS011;26523;52.504;13.498;2023-10-09T09:59:50;5.70;;;2.10;;
40807;SDS011;26523;52.504;13.498;2023-10-09T10:02:37;5.15;;;2.35;;
40807;SDS011;26523;52.504;13.498;2023-10-09T10:05:06;3.88;;;2.10;;
40807;SDS011;26523;52.504;13.498;2023-10-09T10:07:36;5.53;;;2.63;;
40807;SDS011;26523;52.504;13.498;2023-10-09T10:12:58;5.40;;;2.30;;
40807;SDS011;26523;52.504;13.498;2023-10-09T10:21:22;6.47;;;2.35;;
40807;SDS011;26523;52.504;13.498;2023-10-09T10:23:51;4.88;;;2.45;;
40807;SDS011;26523;52.504;13.498;2023-10-09T10:26:20;4.72;;;2.40;;
40807;SDS011;26523;52.504;13.498;2023-10-09T10:31:55;5.35;;;2.33;;
40807;SDS011;26523;52.504;13.498;2023-10-09T10:34:23;6.57;;;3.05;;
40807;SDS011;26523;52.504;13.498;2023-10-09T10:36:50;6.63;;;2.42;;
40807;SDS011;26523;52.504;13.498;2023-10-09T10:39:25;5.28;;;2.50;;
40807;SDS011;26523;52.504;13.498;2023-10-09T10:42:10;6.43;;;2.17;;
40807;SDS011;26523;52.504;13.498;2023-10-09T10:44:58;6.55;;;2.40;;
40807;SDS011;26523;52.504;13.498;2023-10-09T10:47:48;4.97;;;3.22;;
40807;SDS011;26523;52.504;13.498;2023-10-09T10:50:17;6.47;;;2.28;;
40807;SDS011;26523;52.504;13.498;2023-10-09T10:53:07;8.20;;;2.40;;
40807;SDS011;26523;52.504;13.498;2023-10-09T10:56:17;4.93;;;2.50;;
40807;SDS011;26523;52.504;13.498;2023-10-09T10:58:41;6.93;;;2.40;;
40807;SDS011;26523;52.504;13.498;2023-10-09T11:01:31;6.38;;;2.00;;
40807;SDS011;26523;52.504;13.498;2023-10-09T11:04:19;4.45;;;2.05;;
40807;SDS011;26523;52.504;13.498;2023-10-09T11:06:55;3.63;;;2.05;;
40807;SDS011;26523;52.504;13.498;2023-10-09T11:09:26;5.15;;;2.58;;
40807;SDS011;26523;52.504;13.498;2023-10-09T11:12:14;8.23;;;2.47;;
40807;SDS011;26523;52.504;13.498;2023-10-09T11:14:49;4.57;;;2.28;;
40807;SDS011;26523;52.504;13.498;2023-10-09T11:17:35;6.50;;;3.15;;
40807;SDS011;26523;52.504;13.498;2023-10-09T11:20:04;7.93;;;2.72;;
40807;SDS011;26523;52.504;13.498;2023-10-09T11:22:50;4.75;;;2.40;;
40807;SDS011;26523;52.504;13.498;2023-10-09T11:25:35;5.30;;;2.40;;
40807;SDS011;26523;52.504;13.498;2023-10-09T11:28:24;6.07;;;2.75;;
40807;SDS011;26523;52.504;13.498;2023-10-09T11:31:17;6.72;;;2.72;;
40807;SDS011;26523;52.504;13.498;2023-10-09T11:33:49;7.20;;;2.58;;
40807;SDS011;26523;52.504;13.498;2023-10-09T11:36:17;5.88;;;2.90;;
40807;SDS011;26523;52.504;13.498;2023-10-09T11:38:56;7.18;;;3.03;;
40807;SDS011;26523;52.504;13.498;2023-10-09T11:41:41;6.03;;;3.05;;
40807;SDS011;26523;52.504;13.498;2023-10-09T11:44:07;6.32;;;3.05;;
40807;SDS011;26523;52.504;13.498;2023-10-09T11:46:59;5.65;;;2.70;;
40807;SDS011;26523;52.504;13.498;2023-10-09T11:52:26;9.40;;;4.07;;
40807;SDS011;26523;52.504;13.498;2023-10-09T11:55:04;7.72;;;4.13;;
40807;SDS011;26523;52.504;13.498;2023-10-09T11:57:41;5.43;;;2.92;;
40807;SDS011;26523;52.504;13.498;2023-10-09T12:00:07;6.40;;;3.50;;
40807;SDS011;26523;52.504;13.498;2023-10-09T12:02:53;6.97;;;3.67;;
40807;SDS011;26523;52.504;13.498;2023-10-09T12:05:19;6.60;;;3.35;;
40807;SDS011;26523;52.504;13.498;2023-10-09T12:07:45;5.65;;;3.20;;
40807;SDS011;26523;52.504;13.498;2023-10-09T12:10:11;7.50;;;3.42;;
40807;SDS011;26523;52.504;13.498;2023-10-09T12:12:40;8.23;;;3.42;;
40807;SDS011;26523;52.504;13.498;2023-10-09T12:15:11;7.30;;;3.58;;
40807;SDS011;26523;52.504;13.498;2023-10-09T12:17:42;7.95;;;3.28;;
40807;SDS011;26523;52.504;13.498;2023-10-09T12:20:09;8.35;;;3.15;;
40807;SDS011;26523;52.504;13.498;2023-10-09T12:22:46;6.45;;;3.47;;
40807;SDS011;26523;52.504;13.498;2023-10-09T12:25:12;7.97;;;4.32;;
40807;SDS011;26523;52.504;13.498;2023-10-09T12:27:39;6.95;;;3.47;;
40807;SDS011;26523;52.504;13.498;2023-10-09T12:30:05;7.05;;;3.85;;
40807;SDS011;26523;52.504;13.498;2023-10-09T12:32:31;6.72;;;2.97;;
40807;SDS011;26523;52.504;13.498;2023-10-09T12:35:01;5.65;;;3.47;;
40807;SDS011;26523;52.504;13.498;2023-10-09T12:37:27;7.72;;;3.50;;
40807;SDS011;26523;52.504;13.498;2023-10-09T12:39:53;7.90;;;3.67;;
40807;SDS011;26523;52.504;13.498;2023-10-09T12:42:21;9.10;;;3.67;;
40807;SDS011;26523;52.504;13.498;2023-10-09T12:44:47;7.80;;;3.90;;
40807;SDS011;26523;52.504;13.498;2023-10-09T12:47:13;7.28;;;4.13;;
40807;SDS011;26523;52.504;13.498;2023-10-09T12:49:39;7.90;;;4.53;;
40807;SDS011;26523;52.504;13.498;2023-10-09T12:52:06;12.73;;;4.68;;
40807;SDS011;26523;52.504;13.498;2023-10-09T12:54:40;7.03;;;4.32;;
40807;SDS011;26523;52.504;13.498;2023-10-09T12:57:07;6.30;;;4.00;;
40807;SDS011;26523;52.504;13.498;2023-10-09T12:59:38;6.75;;;4.00;;
40807;SDS011;26523;52.504;13.498;2023-10-09T13:02:11;7.80;;;3.80;;
40807;SDS011;26523;52.504;13.498;2023-10-09T13:04:38;7.85;;;3.72;;
40807;SDS011;26523;52.504;13.498;2023-10-09T13:07:07;9.00;;;4.25;;
40807;SDS011;26523;52.504;13.498;2023-10-09T13:09:33;9.30;;;4.35;;
40807;SDS011;26523;52.504;13.498;2023-10-09T13:12:07;8.23;;;4.55;;
40807;SDS011;26523;52.504;13.498;2023-10-09T13:14:34;8.10;;;4.68;;
40807;SDS011;26523;52.504;13.498;2023-10-09T13:17:00;7.65;;;4.25;;
40807;SDS011;26523;52.504;13.498;2023-10-09T13:19:35;7.97;;;4.20;;
40807;SDS011;26523;52.504;13.498;2023-10-09T13:22:01;6.32;;;3.40;;
40807;SDS011;26523;52.504;13.498;2023-10-09T13:24:28;6.35;;;3.78;;
40807;SDS011;26523;52.504;13.498;2023-10-09T13:26:55;8.20;;;4.57;;
40807;SDS011;26523;52.504;13.498;2023-10-09T13:29:23;7.38;;;3.92;;
40807;SDS011;26523;52.504;13.498;2023-10-09T13:31:50;6.30;;;3.70;;
40807;SDS011;26523;52.504;13.498;2023-10-09T13:34:23;7.68;;;4.03;;
40807;SDS011;26523;52.504;13.498;2023-10-09T13:36:53;8.35;;;4.78;;
40807;SDS011;26523;52.504;13.498;2023-10-09T13:39:19;9.13;;;4.05;;
40807;SDS011;26523;52.504;13.498;2023-10-09T13:41:55;9.40;;;5.10;;
40807;SDS011;26523;52.504;13.498;2023-10-09T13:44:25;7.70;;;4.00;;
40807;SDS011;26523;52.504;13.498;2023-10-09T13:46:54;8.77;;;3.90;;
40807;SDS011;26523;52.504;13.498;2023-10-09T13:49:21;8.93;;;4.07;;
40807;SDS011;26523;52.504;13.498;2023-10-09T13:51:48;12.10;;;5.45;;
40807;SDS011;26523;52.504;13.498;2023-10-09T13:54:21;7.55;;;4.28;;
40807;SDS011;26523;52.504;13.498;2023-10-09T13:56:54;7.90;;;4.28;;
40807;SDS011;26523;52.504;13.498;2023-10-09T13:59:21;8.85;;;4.40;;
40807;SDS011;26523;52.504;13.498;2023-10-09T14:01:50;7.43;;;3.70;;
40807;SDS011;26523;52.504;13.498;2023-10-09T14:04:15;7.72;;;4.03;;
40807;SDS011;26523;52.504;13.498;2023-10-09T14:06:45;9.23;;;4.03;;
40807;SDS011;26523;52.504;13.498;2023-10-09T14:09:12;7.18;;;3.80;;
40807;SDS011;26523;52.504;13.498;2023-10-09T14:11:59;7.50;;;3.92;;
40807;SDS011;26523;52.504;13.498;2023-10-09T14:17:17;9.32;;;3.40;;
40807;SDS011;26523;52.504;13.498;2023-10-09T14:19:53;5.45;;;2.90;;
40807;SDS011;26523;52.504;13.498;2023-10-09T14:22:25;8.57;;;4.78;;
40807;SDS011;26523;52.504;13.498;2023-10-09T14:24:54;6.72;;;3.72;;
40807;SDS011;26523;52.504;13.498;2023-10-09T14:27:21;10.15;;;4.97;;
40807;SDS011;26523;52.504;13.498;2023-10-09T14:29:51;9.27;;;4.35;;
40807;SDS011;26523;52.504;13.498;2023-10-09T14:32:21;8.55;;;4.40;;
40807;SDS011;26523;52.504;13.498;2023-10-09T14:34:54;13.27;;;6.03;;
40807;SDS011;26523;52.504;13.498;2023-10-09T14:37:25;9.63;;;3.50;;
40807;SDS011;26523;52.504;13.498;2023-10-09T14:39:52;8.75;;;4.13;;
40807;SDS011;26523;52.504;13.498;2023-10-09T14:42:18;6.78;;;3.67;;
40807;SDS011;26523;52.504;13.498;2023-10-09T14:44:48;9.82;;;4.30;;
40807;SDS011;26523;52.504;13.498;2023-10-09T14:47:15;7.85;;;3.95;;
40807;SDS011;26523;52.504;13.498;2023-10-09T14:49:46;6.18;;;3.95;;
40807;SDS011;26523;52.504;13.498;2023-10-09T14:52:12;8.25;;;4.43;;
40807;SDS011;26523;52.504;13.498;2023-10-09T14:54:43;7.47;;;4.13;;
40807;SDS011;26523;52.504;13.498;2023-10-09T14:57:09;9.88;;;4.50;;
40807;SDS011;26523;52.504;13.498;2023-10-09T14:59:36;7.63;;;3.83;;
40807;SDS011;26523;52.504;13.498;2023-10-09T15:02:02;9.30;;;4.32;;
40807;SDS011;26523;52.504;13.498;2023-10-09T15:04:30;9.77;;;4.05;;
40807;SDS011;26523;52.504;13.498;2023-10-09T15:06:56;9.32;;;4.05;;
40807;SDS011;26523;52.504;13.498;2023-10-09T15:09:22;8.85;;;4.45;;
40807;SDS011;26523;52.504;13.498;2023-10-09T15:11:53;7.78;;;4.35;;
40807;SDS011;26523;52.504;13.498;2023-10-09T15:14:19;8.27;;;4.32;;
40807;SDS011;26523;52.504;13.498;2023-10-09T15:16:45;9.68;;;4.47;;
40807;SDS011;26523;52.504;13.498;2023-10-09T15:19:11;10.77;;;5.07;;
40807;SDS011;26523;52.504;13.498;2023-10-09T15:21:37;10.18;;;4.72;;
40807;SDS011;26523;52.504;13.498;2023-10-09T15:24:13;9.82;;;4.75;;
40807;SDS011;26523;52.504;13.498;2023-10-09T15:26:40;13.80;;;5.88;;
40807;SDS011;26523;52.504;13.498;2023-10-09T15:29:22;9.50;;;5.18;;
40807;SDS011;26523;52.504;13.498;2023-10-09T15:31:55;11.25;;;4.75;;
40807;SDS011;26523;52.504;13.498;2023-10-09T15:34:21;10.52;;;4.95;;
40807;SDS011;26523;52.504;13.498;2023-10-09T15:36:48;11.63;;;4.53;;
40807;SDS011;26523;52.504;13.498;2023-10-09T15:39:13;9.10;;;4.68;;
40807;SDS011;26523;52.504;13.498;2023-10-09T15:41:45;9.45;;;4.63;;
40807;SDS011;26523;52.504;13.498;2023-10-09T15:44:11;9.98;;;4.72;;
40807;SDS011;26523;52.504;13.498;2023-10-09T15:46:38;36.03;;;14.65;;
40807;SDS011;26523;52.504;13.498;2023-10-09T15:49:04;11.50;;;4.90;;